NOAA Weather Radio

Lightning Safety

Turn Around Don't Drown
Storm Ready
SkyWarn
WACO REGIONAL AIRPORT, TX, United States (KACT) 31-36N 97-13W 151M
Sep 01, 2014 - 06:51 PM EDT / 2014.09.01 2251 UTC
Wind: from the SSE (160 degrees) at 15 MPH (13 KT):0
Visibility: 10 mile(s):0
Sky conditions: mostly clear
Temperature: 97.0 F (36.1 C)
Heat index: 101.1 F (38.4 C):1
Dew Point: 66.9 F (19.4 C)
Relative Humidity: 37%
Pressure (altimeter): 29.84 in. Hg (1010 hPa)
ob: KACT 012251Z 16013KT 10SM FEW080 36/19 A2984 RMK AO2 SLP095 T03610194 
cycle: 23